createdAt,value
2019-02-16T00:00:06.576Z,22.60
2019-02-16T00:05:11.474Z,21.63
2019-02-16T00:10:14.436Z,22.07
2019-02-16T00:15:16.753Z,21.37
2019-02-16T00:20:20.043Z,18.07
2019-02-16T00:25:22.250Z,18.17
2019-02-16T00:30:24.907Z,18.67
2019-02-16T00:35:27.070Z,16.23
2019-02-16T00:40:29.235Z,16.40
2019-02-16T00:45:32.106Z,12.60
2019-02-16T00:50:34.265Z,16.27
2019-02-16T00:55:36.478Z,16.90
2019-02-16T01:00:38.855Z,14.70
2019-02-16T01:05:42.063Z,14.10
2019-02-16T01:10:44.246Z,13.63
2019-02-16T01:15:47.069Z,13.57
2019-02-16T01:20:49.827Z,11.40
2019-02-16T01:25:52.557Z,12.33
2019-02-16T01:30:54.824Z,11.97
2019-02-16T01:35:57.655Z,12.83
2019-02-16T01:40:59.905Z,18.83
2019-02-16T01:46:02.078Z,12.93
2019-02-16T01:51:04.271Z,12.17
2019-02-16T01:56:06.892Z,14.80
2019-02-16T02:01:09.334Z,14.73
2019-02-16T02:06:12.699Z,14.07
2019-02-16T02:11:17.348Z,12.57
2019-02-16T02:16:19.531Z,12.60
2019-02-16T02:21:22.604Z,16.00
2019-02-16T02:26:25.405Z,13.80
2019-02-16T02:31:28.235Z,12.90
2019-02-16T02:36:31.020Z,13.40
2019-02-16T02:41:33.793Z,12.07
2019-02-16T02:46:36.502Z,16.03
2019-02-16T02:51:38.969Z,13.97
2019-02-16T02:56:41.146Z,13.60
2019-02-16T03:01:43.519Z,15.37
2019-02-16T03:06:46.190Z,12.43
2019-02-16T03:11:48.676Z,12.37
2019-02-16T03:16:50.861Z,13.80
2019-02-16T03:22:02.454Z,14.23
2019-02-16T03:27:55.988Z,13.13
2019-02-16T03:33:51.142Z,15.30
2019-02-16T03:39:04.714Z,15.37
2019-02-16T03:44:08.830Z,20.40
2019-02-16T03:49:11.549Z,15.73
2019-02-16T03:54:14.110Z,17.57
2019-02-16T03:59:16.901Z,17.47
2019-02-16T04:04:19.045Z,18.57
2019-02-16T04:09:21.228Z,14.60
2019-02-16T04:14:24.411Z,16.67
2019-02-16T04:19:26.871Z,16.33
2019-02-16T04:24:30.537Z,17.97
2019-02-16T04:29:33.199Z,15.57
2019-02-16T04:34:35.396Z,15.00
2019-02-16T04:39:37.611Z,15.57
2019-02-16T04:44:40.677Z,16.23
2019-02-16T04:49:43.818Z,14.77
2019-02-16T04:54:46.805Z,18.50
2019-02-16T04:59:49.914Z,20.23
2019-02-16T05:04:53.421Z,19.40
2019-02-16T05:09:56.257Z,17.80
2019-02-16T05:14:58.469Z,14.90
2019-02-16T05:20:01.758Z,17.77
2019-02-16T05:25:04.465Z,18.67
2019-02-16T05:30:07.215Z,16.40
2019-02-16T05:35:10.613Z,19.80
2019-02-16T05:40:12.854Z,24.57
2019-02-16T05:45:15.645Z,18.63
2019-02-16T05:50:18.144Z,14.63
2019-02-16T05:55:20.966Z,12.60
2019-02-16T06:00:26.048Z,17.20
2019-02-16T06:05:29.341Z,13.23
2019-02-16T06:10:32.030Z,17.23
2019-02-16T06:15:34.867Z,13.20
2019-02-16T06:20:38.357Z,15.00
2019-02-16T06:25:41.383Z,16.87
2019-02-16T06:30:44.184Z,15.53
2019-02-16T06:35:49.754Z,15.43
2019-02-16T06:40:51.962Z,14.50
2019-02-16T06:45:55.019Z,15.30
2019-02-16T06:50:58.167Z,16.10
2019-02-16T06:56:11.583Z,15.03
2019-02-16T07:01:14.076Z,14.33
2019-02-16T07:06:17.307Z,13.43
2019-02-16T07:11:19.489Z,16.10
2019-02-16T07:16:38.522Z,11.67
2019-02-16T07:21:41.180Z,16.03
2019-02-16T07:26:44.545Z,12.47
2019-02-16T07:31:48.025Z,13.77
2019-02-16T07:36:50.209Z,17.20
2019-02-16T07:41:52.714Z,12.33
2019-02-16T07:47:04.197Z,16.03
2019-02-16T07:52:29.937Z,12.70
2019-02-16T07:57:37.891Z,13.47
2019-02-16T08:02:54.949Z,16.70
2019-02-16T08:08:14.811Z,11.23
2019-02-16T08:13:36.744Z,11.10
2019-02-16T08:19:14.529Z,28.23
2019-02-16T08:24:27.694Z,10.90
2019-02-16T08:29:41.205Z,14.90
2019-02-16T08:34:58.517Z,10.33
2019-02-16T08:40:09.168Z,11.63
2019-02-16T08:45:34.253Z,10.53
2019-02-16T08:50:41.748Z,14.20
2019-02-16T08:56:00.921Z,10.70
2019-02-16T09:01:35.319Z,9.30
2019-02-16T09:07:04.017Z,11.63
2019-02-16T09:12:17.867Z,11.43
2019-02-16T09:17:42.437Z,9.87
2019-02-16T10:17:56.931Z,10.13
2019-02-16T10:23:10.229Z,7.03
2019-02-16T10:28:33.954Z,9.07
2019-02-16T10:35:50.734Z,6.40
2019-02-16T18:55:11.043Z,7.47
2019-02-16T19:00:27.133Z,14.77
2019-02-16T19:05:55.685Z,17.17
2019-02-16T19:11:08.053Z,17.53
2019-02-16T19:16:37.938Z,10.20
2019-02-16T19:22:00.162Z,16.57
2019-02-16T19:27:16.729Z,16.50
2019-02-16T19:32:31.548Z,20.77
2019-02-16T19:37:56.399Z,17.47
2019-02-16T19:43:09.513Z,19.43
2019-02-16T19:48:40.806Z,18.70
2019-02-16T19:54:01.524Z,17.93
2019-02-16T19:59:22.277Z,15.60
2019-02-16T20:04:45.659Z,21.90
2019-02-16T20:10:07.368Z,17.53
2019-02-16T20:15:28.484Z,14.80
2019-02-16T20:20:50.323Z,15.87
2019-02-16T20:26:00.276Z,17.47
2019-02-16T20:31:08.114Z,19.53
2019-02-16T20:36:34.152Z,21.30
2019-02-16T20:41:52.369Z,15.23
2019-02-16T20:47:12.747Z,20.60
2019-02-16T20:52:25.398Z,33.73
2019-02-16T20:57:51.405Z,19.13
2019-02-16T21:03:16.596Z,18.00
2019-02-16T21:08:28.794Z,19.60
2019-02-16T21:13:50.642Z,19.17
2019-02-16T21:19:11.249Z,21.37
2019-02-16T21:24:33.349Z,19.80
2019-02-16T21:29:44.548Z,17.57
2019-02-16T21:35:09.520Z,23.53
2019-02-16T21:40:34.675Z,24.53
2019-02-16T21:45:55.508Z,23.93
2019-02-16T21:51:20.536Z,23.70
2019-02-16T21:56:41.965Z,30.20
2019-02-16T22:01:54.332Z,25.40
2019-02-16T22:07:16.799Z,24.20
2019-02-16T22:12:37.927Z,19.00
2019-02-16T22:17:40.811Z,20.40
2019-02-16T22:22:43.127Z,22.57
2019-02-16T22:27:45.336Z,23.10
2019-02-16T22:32:48.080Z,27.00
2019-02-16T22:37:50.815Z,24.63
2019-02-16T22:42:53.849Z,18.50
2019-02-16T22:47:56.548Z,19.37
2019-02-16T22:52:59.868Z,17.30
2019-02-16T22:58:02.586Z,19.77
2019-02-16T23:03:06.594Z,15.33
2019-02-16T23:08:09.047Z,23.20
2019-02-16T23:13:11.563Z,21.43
2019-02-16T23:18:14.843Z,20.40
2019-02-16T23:23:17.385Z,23.70
2019-02-16T23:28:19.838Z,24.13
2019-02-16T23:33:22.730Z,25.13
2019-02-16T23:38:25.426Z,26.47
2019-02-16T23:43:29.736Z,19.97
2019-02-16T23:48:33.210Z,21.67
2019-02-16T23:53:35.700Z,26.83
2019-02-16T23:58:48.720Z,21.57
